sensor_id;sensor_type;location;lat;lon;timestamp;temperature;humidity
24410;DHT22;12543;53.364;-1.504;2023-06-22T00:00:33;18.00;99.90
24410;DHT22;12543;53.364;-1.504;2023-06-22T00:03:00;18.00;99.90
24410;DHT22;12543;53.364;-1.504;2023-06-22T00:05:27;18.00;99.90
24410;DHT22;12543;53.364;-1.504;2023-06-22T00:07:55;17.90;99.90
24410;DHT22;12543;53.364;-1.504;2023-06-22T00:10:22;18.00;99.90
24410;DHT22;12543;53.364;-1.504;2023-06-22T00:12:50;17.90;99.90
24410;DHT22;12543;53.364;-1.504;2023-06-22T00:15:17;17.90;99.90
24410;DHT22;12543;53.364;-1.504;2023-06-22T00:17:45;17.90;99.90
24410;DHT22;12543;53.364;-1.504;2023-06-22T00:20:12;17.90;99.90
24410;DHT22;12543;53.364;-1.504;2023-06-22T00:22:40;17.80;99.90
24410;DHT22;12543;53.364;-1.504;2023-06-22T00:25:10;17.80;99.90
24410;DHT22;12543;53.364;-1.504;2023-06-22T00:27:37;17.80;99.90
24410;DHT22;12543;53.364;-1.504;2023-06-22T00:30:06;17.80;99.90
24410;DHT22;12543;53.364;-1.504;2023-06-22T00:32:34;17.80;99.90
24410;DHT22;12543;53.364;-1.504;2023-06-22T00:35:01;17.70;99.90
24410;DHT22;12543;53.364;-1.504;2023-06-22T00:37:29;17.70;99.90
24410;DHT22;12543;53.364;-1.504;2023-06-22T00:39:59;17.70;99.90
24410;DHT22;12543;53.364;-1.504;2023-06-22T00:42:26;17.60;99.90
24410;DHT22;12543;53.364;-1.504;2023-06-22T00:44:53;17.70;99.90
24410;DHT22;12543;53.364;-1.504;2023-06-22T00:47:21;17.60;99.90
24410;DHT22;12543;53.364;-1.504;2023-06-22T00:49:49;17.60;99.90
24410;DHT22;12543;53.364;-1.504;2023-06-22T00:52:21;17.60;99.90
24410;DHT22;12543;53.364;-1.504;2023-06-22T00:54:56;17.60;99.90
24410;DHT22;12543;53.364;-1.504;2023-06-22T00:57:26;17.60;99.90
24410;DHT22;12543;53.364;-1.504;2023-06-22T00:59:55;17.60;99.90
24410;DHT22;12543;53.364;-1.504;2023-06-22T01:02:22;17.50;99.90
24410;DHT22;12543;53.364;-1.504;2023-06-22T01:04:51;17.60;99.90
24410;DHT22;12543;53.364;-1.504;2023-06-22T01:07:27;17.60;99.90
24410;DHT22;12543;53.364;-1.504;2023-06-22T01:10:16;17.50;99.90
24410;DHT22;12543;53.364;-1.504;2023-06-22T01:12:52;17.50;99.90
24410;DHT22;12543;53.364;-1.504;2023-06-22T01:15:28;17.50;99.90
24410;DHT22;12543;53.364;-1.504;2023-06-22T01:17:59;17.50;99.90
24410;DHT22;12543;53.364;-1.504;2023-06-22T01:20:30;17.50;99.90
24410;DHT22;12543;53.364;-1.504;2023-06-22T01:26:40;17.50;99.90
24410;DHT22;12543;53.364;-1.504;2023-06-22T01:29:11;17.40;99.90
24410;DHT22;12543;53.364;-1.504;2023-06-22T01:31:41;17.40;99.90
24410;DHT22;12543;53.364;-1.504;2023-06-22T01:34:12;17.40;99.90
24410;DHT22;12543;53.364;-1.504;2023-06-22T01:36:39;17.40;99.90
24410;DHT22;12543;53.364;-1.504;2023-06-22T01:39:07;17.40;99.90
24410;DHT22;12543;53.364;-1.504;2023-06-22T01:41:36;17.40;99.90
24410;DHT22;12543;53.364;-1.504;2023-06-22T01:44:08;17.40;99.90
24410;DHT22;12543;53.364;-1.504;2023-06-22T01:46:37;17.40;99.90
24410;DHT22;12543;53.364;-1.504;2023-06-22T01:49:06;17.40;99.90
24410;DHT22;12543;53.364;-1.504;2023-06-22T01:51:35;17.40;99.90
24410;DHT22;12543;53.364;-1.504;2023-06-22T01:54:03;17.40;99.90
24410;DHT22;12543;53.364;-1.504;2023-06-22T01:56:30;17.40;99.90
24410;DHT22;12543;53.364;-1.504;2023-06-22T01:59:09;17.40;99.90
24410;DHT22;12543;53.364;-1.504;2023-06-22T02:02:06;17.40;99.90
24410;DHT22;12543;53.364;-1.504;2023-06-22T02:04:44;17.40;99.90
24410;DHT22;12543;53.364;-1.504;2023-06-22T02:07:16;17.40;99.90
24410;DHT22;12543;53.364;-1.504;2023-06-22T02:09:45;17.40;99.90
24410;DHT22;12543;53.364;-1.504;2023-06-22T02:12:18;17.40;99.90
24410;DHT22;12543;53.364;-1.504;2023-06-22T02:14:48;17.40;99.90
24410;DHT22;12543;53.364;-1.504;2023-06-22T02:17:19;17.40;99.90
24410;DHT22;12543;53.364;-1.504;2023-06-22T02:19:46;17.40;99.90
24410;DHT22;12543;53.364;-1.504;2023-06-22T02:22:13;17.40;99.90
24410;DHT22;12543;53.364;-1.504;2023-06-22T02:24:43;17.40;99.90
24410;DHT22;12543;53.364;-1.504;2023-06-22T02:27:10;17.40;99.90
24410;DHT22;12543;53.364;-1.504;2023-06-22T02:29:38;17.40;99.90
24410;DHT22;12543;53.364;-1.504;2023-06-22T02:32:05;17.40;99.90
24410;DHT22;12543;53.364;-1.504;2023-06-22T02:34:32;17.40;99.90
24410;DHT22;12543;53.364;-1.504;2023-06-22T02:37:01;17.40;99.90
24410;DHT22;12543;53.364;-1.504;2023-06-22T02:39:29;17.40;99.90
24410;DHT22;12543;53.364;-1.504;2023-06-22T02:41:56;17.30;99.90
24410;DHT22;12543;53.364;-1.504;2023-06-22T02:44:23;17.30;99.90
24410;DHT22;12543;53.364;-1.504;2023-06-22T02:46:51;17.30;99.90
24410;DHT22;12543;53.364;-1.504;2023-06-22T02:49:18;17.30;99.90
24410;DHT22;12543;53.364;-1.504;2023-06-22T02:51:47;17.30;99.90
24410;DHT22;12543;53.364;-1.504;2023-06-22T02:54:18;17.30;99.90
24410;DHT22;12543;53.364;-1.504;2023-06-22T02:56:47;17.30;99.90
24410;DHT22;12543;53.364;-1.504;2023-06-22T02:59:15;17.30;99.90
24410;DHT22;12543;53.364;-1.504;2023-06-22T03:01:44;17.30;99.90
24410;DHT22;12543;53.364;-1.504;2023-06-22T03:04:22;17.30;99.90
24410;DHT22;12543;53.364;-1.504;2023-06-22T03:06:49;17.30;99.90
24410;DHT22;12543;53.364;-1.504;2023-06-22T03:09:18;17.30;99.90
24410;DHT22;12543;53.364;-1.504;2023-06-22T03:11:45;17.30;99.90
24410;DHT22;12543;53.364;-1.504;2023-06-22T03:14:13;17.30;99.90
24410;DHT22;12543;53.364;-1.504;2023-06-22T03:16:40;17.30;99.90
24410;DHT22;12543;53.364;-1.504;2023-06-22T03:19:08;17.30;99.90
24410;DHT22;12543;53.364;-1.504;2023-06-22T03:21:37;17.30;99.90
24410;DHT22;12543;53.364;-1.504;2023-06-22T03:24:06;17.20;99.90
24410;DHT22;12543;53.364;-1.504;2023-06-22T03:26:34;17.30;99.90
24410;DHT22;12543;53.364;-1.504;2023-06-22T03:29:01;17.30;99.90
24410;DHT22;12543;53.364;-1.504;2023-06-22T03:31:30;17.30;99.90
24410;DHT22;12543;53.364;-1.504;2023-06-22T03:33:57;17.30;99.90
24410;DHT22;12543;53.364;-1.504;2023-06-22T03:36:24;17.20;99.90
24410;DHT22;12543;53.364;-1.504;2023-06-22T03:38:52;17.30;99.90
24410;DHT22;12543;53.364;-1.504;2023-06-22T03:41:19;17.20;99.90
24410;DHT22;12543;53.364;-1.504;2023-06-22T03:43:48;17.20;99.90
24410;DHT22;12543;53.364;-1.504;2023-06-22T03:46:15;17.20;99.90
24410;DHT22;12543;53.364;-1.504;2023-06-22T03:48:43;17.20;99.90
24410;DHT22;12543;53.364;-1.504;2023-06-22T03:51:10;17.20;99.90
24410;DHT22;12543;53.364;-1.504;2023-06-22T03:53:37;17.20;99.90
24410;DHT22;12543;53.364;-1.504;2023-06-22T03:56:05;17.20;99.90
24410;DHT22;12543;53.364;-1.504;2023-06-22T03:58:32;17.20;99.90
24410;DHT22;12543;53.364;-1.504;2023-06-22T04:01:00;17.20;99.90
24410;DHT22;12543;53.364;-1.504;2023-06-22T04:03:27;17.20;99.90
24410;DHT22;12543;53.364;-1.504;2023-06-22T04:05:55;17.20;99.90
24410;DHT22;12543;53.364;-1.504;2023-06-22T04:08:22;17.20;99.90
24410;DHT22;12543;53.364;-1.504;2023-06-22T04:10:49;17.20;99.90
24410;DHT22;12543;53.364;-1.504;2023-06-22T04:13:16;17.20;99.90
24410;DHT22;12543;53.364;-1.504;2023-06-22T04:15:43;17.20;99.90
24410;DHT22;12543;53.364;-1.504;2023-06-22T04:18:10;17.20;99.90
24410;DHT22;12543;53.364;-1.504;2023-06-22T04:20:38;17.20;99.90
24410;DHT22;12543;53.364;-1.504;2023-06-22T04:23:05;17.20;99.90
24410;DHT22;12543;53.364;-1.504;2023-06-22T04:25:32;17.20;99.90
24410;DHT22;12543;53.364;-1.504;2023-06-22T04:27:59;17.20;99.90
24410;DHT22;12543;53.364;-1.504;2023-06-22T04:30:32;17.20;99.90
24410;DHT22;12543;53.364;-1.504;2023-06-22T04:33:00;17.20;99.90
24410;DHT22;12543;53.364;-1.504;2023-06-22T04:35:27;17.20;99.90
24410;DHT22;12543;53.364;-1.504;2023-06-22T04:37:57;17.20;99.90
24410;DHT22;12543;53.364;-1.504;2023-06-22T04:40:25;17.20;99.90
24410;DHT22;12543;53.364;-1.504;2023-06-22T04:42:53;17.10;99.90
24410;DHT22;12543;53.364;-1.504;2023-06-22T04:45:21;17.20;99.90
24410;DHT22;12543;53.364;-1.504;2023-06-22T04:47:49;17.20;99.90
24410;DHT22;12543;53.364;-1.504;2023-06-22T04:50:16;17.10;99.90
24410;DHT22;12543;53.364;-1.504;2023-06-22T04:52:44;17.20;99.90
24410;DHT22;12543;53.364;-1.504;2023-06-22T04:55:12;17.20;99.90
24410;DHT22;12543;53.364;-1.504;2023-06-22T04:57:41;17.20;99.90
24410;DHT22;12543;53.364;-1.504;2023-06-22T05:00:12;17.20;99.90
24410;DHT22;12543;53.364;-1.504;2023-06-22T05:02:40;17.20;99.90
24410;DHT22;12543;53.364;-1.504;2023-06-22T05:05:08;17.10;99.90
24410;DHT22;12543;53.364;-1.504;2023-06-22T05:07:36;17.10;99.90
24410;DHT22;12543;53.364;-1.504;2023-06-22T05:10:04;17.10;99.90
24410;DHT22;12543;53.364;-1.504;2023-06-22T05:12:31;17.10;99.90
24410;DHT22;12543;53.364;-1.504;2023-06-22T05:14:59;17.10;99.90
24410;DHT22;12543;53.364;-1.504;2023-06-22T05:17:26;17.10;99.90
24410;DHT22;12543;53.364;-1.504;2023-06-22T05:19:53;17.10;99.90
24410;DHT22;12543;53.364;-1.504;2023-06-22T05:22:21;17.10;99.90
24410;DHT22;12543;53.364;-1.504;2023-06-22T05:24:49;17.00;99.90
24410;DHT22;12543;53.364;-1.504;2023-06-22T05:27:16;17.00;99.90
24410;DHT22;12543;53.364;-1.504;2023-06-22T05:29:43;17.10;99.90
24410;DHT22;12543;53.364;-1.504;2023-06-22T05:32:10;17.10;99.90
24410;DHT22;12543;53.364;-1.504;2023-06-22T05:34:38;17.10;99.90
24410;DHT22;12543;53.364;-1.504;2023-06-22T05:37:05;17.10;99.90
24410;DHT22;12543;53.364;-1.504;2023-06-22T05:39:33;17.10;99.90
24410;DHT22;12543;53.364;-1.504;2023-06-22T05:42:00;17.10;99.90
24410;DHT22;12543;53.364;-1.504;2023-06-22T05:44:27;17.10;99.90
24410;DHT22;12543;53.364;-1.504;2023-06-22T05:46:54;17.20;99.90
24410;DHT22;12543;53.364;-1.504;2023-06-22T05:49:22;17.20;99.90
24410;DHT22;12543;53.364;-1.504;2023-06-22T05:51:50;17.20;99.90
24410;DHT22;12543;53.364;-1.504;2023-06-22T05:54:17;17.20;99.90
24410;DHT22;12543;53.364;-1.504;2023-06-22T05:56:45;17.20;99.90
24410;DHT22;12543;53.364;-1.504;2023-06-22T05:59:12;17.30;99.90
24410;DHT22;12543;53.364;-1.504;2023-06-22T06:01:39;17.30;99.90
24410;DHT22;12543;53.364;-1.504;2023-06-22T06:04:07;17.30;99.90
24410;DHT22;12543;53.364;-1.504;2023-06-22T06:06:37;17.40;99.90
24410;DHT22;12543;53.364;-1.504;2023-06-22T06:09:04;17.40;99.90
24410;DHT22;12543;53.364;-1.504;2023-06-22T06:11:32;17.50;99.90
24410;DHT22;12543;53.364;-1.504;2023-06-22T06:13:59;17.50;99.90
24410;DHT22;12543;53.364;-1.504;2023-06-22T06:16:26;17.50;99.90
24410;DHT22;12543;53.364;-1.504;2023-06-22T06:18:53;17.50;99.90
24410;DHT22;12543;53.364;-1.504;2023-06-22T06:21:23;17.50;99.90
24410;DHT22;12543;53.364;-1.504;2023-06-22T06:23:50;17.60;99.90
24410;DHT22;12543;53.364;-1.504;2023-06-22T06:26:17;17.60;99.90
24410;DHT22;12543;53.364;-1.504;2023-06-22T06:28:45;17.60;99.90
24410;DHT22;12543;53.364;-1.504;2023-06-22T06:31:13;17.60;99.90
24410;DHT22;12543;53.364;-1.504;2023-06-22T06:33:44;17.60;99.90
24410;DHT22;12543;53.364;-1.504;2023-06-22T06:36:12;17.60;99.90
24410;DHT22;12543;53.364;-1.504;2023-06-22T06:38:39;17.60;99.90
24410;DHT22;12543;53.364;-1.504;2023-06-22T06:41:06;17.70;99.90
24410;DHT22;12543;53.364;-1.504;2023-06-22T06:43:34;17.70;99.90
24410;DHT22;12543;53.364;-1.504;2023-06-22T06:46:01;17.70;99.90
24410;DHT22;12543;53.364;-1.504;2023-06-22T06:48:30;17.80;99.90
24410;DHT22;12543;53.364;-1.504;2023-06-22T06:50:57;17.80;99.90
24410;DHT22;12543;53.364;-1.504;2023-06-22T06:53:24;17.90;99.90
24410;DHT22;12543;53.364;-1.504;2023-06-22T06:55:52;18.00;99.90
24410;DHT22;12543;53.364;-1.504;2023-06-22T06:58:19;18.00;99.90
24410;DHT22;12543;53.364;-1.504;2023-06-22T07:00:46;18.10;99.90
24410;DHT22;12543;53.364;-1.504;2023-06-22T07:03:14;18.10;99.90
24410;DHT22;12543;53.364;-1.504;2023-06-22T07:05:41;18.20;99.90
24410;DHT22;12543;53.364;-1.504;2023-06-22T07:08:08;18.20;99.90
24410;DHT22;12543;53.364;-1.504;2023-06-22T07:10:36;18.30;99.90
24410;DHT22;12543;53.364;-1.504;2023-06-22T07:13:03;18.40;99.90
24410;DHT22;12543;53.364;-1.504;2023-06-22T07:15:30;18.40;99.90
24410;DHT22;12543;53.364;-1.504;2023-06-22T07:17:57;18.50;99.90
24410;DHT22;12543;53.364;-1.504;2023-06-22T07:20:25;18.50;99.90
24410;DHT22;12543;53.364;-1.504;2023-06-22T07:22:52;18.50;99.90
24410;DHT22;12543;53.364;-1.504;2023-06-22T07:25:20;18.60;99.90
24410;DHT22;12543;53.364;-1.504;2023-06-22T07:27:58;18.70;99.90
24410;DHT22;12543;53.364;-1.504;2023-06-22T07:30:25;18.70;99.90
24410;DHT22;12543;53.364;-1.504;2023-06-22T07:32:54;18.80;99.90
24410;DHT22;12543;53.364;-1.504;2023-06-22T07:35:21;18.90;99.90
24410;DHT22;12543;53.364;-1.504;2023-06-22T07:37:49;18.90;99.90
24410;DHT22;12543;53.364;-1.504;2023-06-22T07:40:16;19.00;99.90
24410;DHT22;12543;53.364;-1.504;2023-06-22T07:42:44;19.10;99.90
24410;DHT22;12543;53.364;-1.504;2023-06-22T07:45:11;19.20;99.90
24410;DHT22;12543;53.364;-1.504;2023-06-22T07:47:38;19.30;99.90
24410;DHT22;12543;53.364;-1.504;2023-06-22T07:50:06;19.30;99.90
24410;DHT22;12543;53.364;-1.504;2023-06-22T07:52:33;19.30;99.90
24410;DHT22;12543;53.364;-1.504;2023-06-22T07:55:01;19.40;99.90
24410;DHT22;12543;53.364;-1.504;2023-06-22T07:57:29;19.50;99.90
24410;DHT22;12543;53.364;-1.504;2023-06-22T08:00:02;19.60;99.90
24410;DHT22;12543;53.364;-1.504;2023-06-22T08:02:39;19.60;99.90
24410;DHT22;12543;53.364;-1.504;2023-06-22T08:05:09;19.70;99.90
24410;DHT22;12543;53.364;-1.504;2023-06-22T08:07:48;19.80;99.90
24410;DHT22;12543;53.364;-1.504;2023-06-22T08:10:15;19.90;99.90
24410;DHT22;12543;53.364;-1.504;2023-06-22T08:12:43;19.90;99.90
24410;DHT22;12543;53.364;-1.504;2023-06-22T08:15:11;20.00;99.90
24410;DHT22;12543;53.364;-1.504;2023-06-22T08:17:39;20.00;99.90
24410;DHT22;12543;53.364;-1.504;2023-06-22T08:20:07;20.10;99.90
24410;DHT22;12543;53.364;-1.504;2023-06-22T08:22:42;20.10;99.90
24410;DHT22;12543;53.364;-1.504;2023-06-22T08:25:10;20.20;99.90
24410;DHT22;12543;53.364;-1.504;2023-06-22T08:27:37;20.20;99.90
24410;DHT22;12543;53.364;-1.504;2023-06-22T08:30:06;20.30;99.90
24410;DHT22;12543;53.364;-1.504;2023-06-22T08:32:33;20.40;99.90
24410;DHT22;12543;53.364;-1.504;2023-06-22T08:35:01;20.50;99.90
24410;DHT22;12543;53.364;-1.504;2023-06-22T08:37:28;20.60;99.90
24410;DHT22;12543;53.364;-1.504;2023-06-22T08:40:05;20.70;99.90
24410;DHT22;12543;53.364;-1.504;2023-06-22T08:42:40;20.80;99.90
24410;DHT22;12543;53.364;-1.504;2023-06-22T08:45:07;20.90;99.90
24410;DHT22;12543;53.364;-1.504;2023-06-22T08:47:35;21.00;99.90
24410;DHT22;12543;53.364;-1.504;2023-06-22T08:50:02;21.10;99.90
24410;DHT22;12543;53.364;-1.504;2023-06-22T08:52:30;21.20;99.90
24410;DHT22;12543;53.364;-1.504;2023-06-22T08:54:58;21.30;99.90
24410;DHT22;12543;53.364;-1.504;2023-06-22T08:57:26;21.40;99.90
24410;DHT22;12543;53.364;-1.504;2023-06-22T08:59:53;21.50;99.90
24410;DHT22;12543;53.364;-1.504;2023-06-22T09:02:27;21.60;99.90
24410;DHT22;12543;53.364;-1.504;2023-06-22T09:05:19;21.60;99.90
24410;DHT22;12543;53.364;-1.504;2023-06-22T09:08:31;21.70;99.90
24410;DHT22;12543;53.364;-1.504;2023-06-22T09:12:17;21.80;99.90
24410;DHT22;12543;53.364;-1.504;2023-06-22T09:18:58;21.90;99.90
24410;DHT22;12543;53.364;-1.504;2023-06-22T09:21:28;22.00;99.90
24410;DHT22;12543;53.364;-1.504;2023-06-22T09:24:00;22.10;99.90
24410;DHT22;12543;53.364;-1.504;2023-06-22T09:26:27;22.10;99.90
24410;DHT22;12543;53.364;-1.504;2023-06-22T09:28:55;22.20;99.90
24410;DHT22;12543;53.364;-1.504;2023-06-22T09:31:22;22.30;99.90
24410;DHT22;12543;53.364;-1.504;2023-06-22T09:33:53;22.40;99.90
24410;DHT22;12543;53.364;-1.504;2023-06-22T09:36:22;22.50;99.90
24410;DHT22;12543;53.364;-1.504;2023-06-22T09:38:49;22.60;99.90
24410;DHT22;12543;53.364;-1.504;2023-06-22T09:41:26;22.60;99.90
24410;DHT22;12543;53.364;-1.504;2023-06-22T09:43:53;22.70;99.90
24410;DHT22;12543;53.364;-1.504;2023-06-22T09:46:23;22.70;99.90
24410;DHT22;12543;53.364;-1.504;2023-06-22T09:48:52;22.80;99.90
24410;DHT22;12543;53.364;-1.504;2023-06-22T09:51:20;23.00;99.90
24410;DHT22;12543;53.364;-1.504;2023-06-22T09:53:49;23.10;99.90
24410;DHT22;12543;53.364;-1.504;2023-06-22T09:56:16;23.40;99.90
24410;DHT22;12543;53.364;-1.504;2023-06-22T09:58:44;23.60;99.90
24410;DHT22;12543;53.364;-1.504;2023-06-22T10:01:13;23.90;99.90
24410;DHT22;12543;53.364;-1.504;2023-06-22T10:03:44;24.30;99.90
24410;DHT22;12543;53.364;-1.504;2023-06-22T10:06:11;24.60;99.90
24410;DHT22;12543;53.364;-1.504;2023-06-22T10:08:38;24.80;99.90
24410;DHT22;12543;53.364;-1.504;2023-06-22T10:11:07;24.90;99.90
24410;DHT22;12543;53.364;-1.504;2023-06-22T10:13:34;25.00;99.90
24410;DHT22;12543;53.364;-1.504;2023-06-22T10:16:02;25.30;99.90
24410;DHT22;12543;53.364;-1.504;2023-06-22T10:18:29;25.70;99.90
24410;DHT22;12543;53.364;-1.504;2023-06-22T10:20:57;26.00;99.90
24410;DHT22;12543;53.364;-1.504;2023-06-22T10:23:24;26.30;99.90
24410;DHT22;12543;53.364;-1.504;2023-06-22T10:25:52;26.50;99.90
24410;DHT22;12543;53.364;-1.504;2023-06-22T10:28:19;26.60;99.90
24410;DHT22;12543;53.364;-1.504;2023-06-22T10:30:46;26.50;99.90
24410;DHT22;12543;53.364;-1.504;2023-06-22T10:33:13;26.40;99.90
24410;DHT22;12543;53.364;-1.504;2023-06-22T10:35:41;26.30;99.90
24410;DHT22;12543;53.364;-1.504;2023-06-22T10:38:08;26.30;99.90
24410;DHT22;12543;53.364;-1.504;2023-06-22T10:40:35;26.40;99.90
24410;DHT22;12543;53.364;-1.504;2023-06-22T10:43:03;26.70;99.90
24410;DHT22;12543;53.364;-1.504;2023-06-22T10:45:30;27.10;99.90
24410;DHT22;12543;53.364;-1.504;2023-06-22T10:47:58;27.20;99.90
24410;DHT22;12543;53.364;-1.504;2023-06-22T10:50:25;27.30;99.90
24410;DHT22;12543;53.364;-1.504;2023-06-22T10:52:54;27.20;99.90
24410;DHT22;12543;53.364;-1.504;2023-06-22T10:55:25;27.00;99.90
24410;DHT22;12543;53.364;-1.504;2023-06-22T10:57:52;26.90;99.90
24410;DHT22;12543;53.364;-1.504;2023-06-22T11:00:20;26.60;99.90
24410;DHT22;12543;53.364;-1.504;2023-06-22T11:02:48;26.40;99.90
24410;DHT22;12543;53.364;-1.504;2023-06-22T11:05:15;26.20;99.90
24410;DHT22;12543;53.364;-1.504;2023-06-22T11:07:43;25.90;99.90
24410;DHT22;12543;53.364;-1.504;2023-06-22T11:10:12;25.70;99.90
24410;DHT22;12543;53.364;-1.504;2023-06-22T11:12:40;25.50;99.90
24410;DHT22;12543;53.364;-1.504;2023-06-22T11:15:08;25.30;99.90
24410;DHT22;12543;53.364;-1.504;2023-06-22T11:17:35;25.10;99.90
24410;DHT22;12543;53.364;-1.504;2023-06-22T11:20:03;24.90;99.90
24410;DHT22;12543;53.364;-1.504;2023-06-22T11:22:39;24.70;99.90
24410;DHT22;12543;53.364;-1.504;2023-06-22T11:25:07;24.50;99.90
24410;DHT22;12543;53.364;-1.504;2023-06-22T11:27:37;24.30;99.90
24410;DHT22;12543;53.364;-1.504;2023-06-22T11:30:04;24.10;99.90
24410;DHT22;12543;53.364;-1.504;2023-06-22T11:32:32;24.00;99.90
24410;DHT22;12543;53.364;-1.504;2023-06-22T11:34:59;23.90;99.90
24410;DHT22;12543;53.364;-1.504;2023-06-22T11:37:26;23.80;99.90
24410;DHT22;12543;53.364;-1.504;2023-06-22T11:39:53;23.70;99.90
24410;DHT22;12543;53.364;-1.504;2023-06-22T11:42:32;23.70;99.90
24410;DHT22;12543;53.364;-1.504;2023-06-22T11:45:00;23.60;99.90
24410;DHT22;12543;53.364;-1.504;2023-06-22T11:47:27;23.60;99.90
24410;DHT22;12543;53.364;-1.504;2023-06-22T11:49:54;23.50;99.90
24410;DHT22;12543;53.364;-1.504;2023-06-22T11:52:21;23.40;99.90
24410;DHT22;12543;53.364;-1.504;2023-06-22T11:54:48;23.40;99.90
24410;DHT22;12543;53.364;-1.504;2023-06-22T11:57:16;23.60;99.90
24410;DHT22;12543;53.364;-1.504;2023-06-22T11:59:43;23.70;99.90
24410;DHT22;12543;53.364;-1.504;2023-06-22T12:02:10;24.10;99.90
24410;DHT22;12543;53.364;-1.504;2023-06-22T12:04:37;24.60;99.90
24410;DHT22;12543;53.364;-1.504;2023-06-22T12:07:05;25.10;99.90
24410;DHT22;12543;53.364;-1.504;2023-06-22T12:09:32;25.50;99.90
24410;DHT22;12543;53.364;-1.504;2023-06-22T12:11:59;25.80;99.90
24410;DHT22;12543;53.364;-1.504;2023-06-22T12:14:27;26.10;99.90
24410;DHT22;12543;53.364;-1.504;2023-06-22T12:16:56;26.40;99.90
24410;DHT22;12543;53.364;-1.504;2023-06-22T12:19:23;26.60;99.90
24410;DHT22;12543;53.364;-1.504;2023-06-22T12:21:51;27.00;99.90
24410;DHT22;12543;53.364;-1.504;2023-06-22T12:24:18;27.40;99.90
24410;DHT22;12543;53.364;-1.504;2023-06-22T12:26:45;27.70;99.90
24410;DHT22;12543;53.364;-1.504;2023-06-22T12:29:12;28.10;99.90
24410;DHT22;12543;53.364;-1.504;2023-06-22T12:31:39;28.50;99.90
24410;DHT22;12543;53.364;-1.504;2023-06-22T12:34:08;28.80;99.90
24410;DHT22;12543;53.364;-1.504;2023-06-22T12:36:36;29.00;99.90
24410;DHT22;12543;53.364;-1.504;2023-06-22T12:39:03;29.30;99.90
24410;DHT22;12543;53.364;-1.504;2023-06-22T12:41:30;29.50;99.90
24410;DHT22;12543;53.364;-1.504;2023-06-22T12:43:57;29.80;99.90
24410;DHT22;12543;53.364;-1.504;2023-06-22T12:46:24;30.00;99.90
24410;DHT22;12543;53.364;-1.504;2023-06-22T12:48:52;30.20;99.90
24410;DHT22;12543;53.364;-1.504;2023-06-22T12:51:22;30.30;99.90
24410;DHT22;12543;53.364;-1.504;2023-06-22T12:53:50;30.40;99.90
24410;DHT22;12543;53.364;-1.504;2023-06-22T12:56:17;30.50;99.90
24410;DHT22;12543;53.364;-1.504;2023-06-22T12:58:44;30.60;99.90
24410;DHT22;12543;53.364;-1.504;2023-06-22T13:01:11;30.70;99.90
24410;DHT22;12543;53.364;-1.504;2023-06-22T13:03:38;30.80;99.90
24410;DHT22;12543;53.364;-1.504;2023-06-22T13:06:06;30.80;99.90
24410;DHT22;12543;53.364;-1.504;2023-06-22T13:08:33;30.80;99.90
24410;DHT22;12543;53.364;-1.504;2023-06-22T13:11:20;30.80;99.90
24410;DHT22;12543;53.364;-1.504;2023-06-22T13:13:47;31.00;99.90
24410;DHT22;12543;53.364;-1.504;2023-06-22T13:16:15;31.00;99.90
24410;DHT22;12543;53.364;-1.504;2023-06-22T13:18:42;31.20;99.90
24410;DHT22;12543;53.364;-1.504;2023-06-22T13:21:09;31.30;99.90
24410;DHT22;12543;53.364;-1.504;2023-06-22T13:23:36;31.30;99.90
24410;DHT22;12543;53.364;-1.504;2023-06-22T13:26:03;31.20;99.90
24410;DHT22;12543;53.364;-1.504;2023-06-22T13:28:31;31.00;99.90
24410;DHT22;12543;53.364;-1.504;2023-06-22T13:30:58;30.70;99.90
24410;DHT22;12543;53.364;-1.504;2023-06-22T13:33:28;30.60;99.90
24410;DHT22;12543;53.364;-1.504;2023-06-22T13:35:55;30.40;99.90
24410;DHT22;12543;53.364;-1.504;2023-06-22T13:38:22;30.10;99.90
24410;DHT22;12543;53.364;-1.504;2023-06-22T13:40:52;29.90;99.90
24410;DHT22;12543;53.364;-1.504;2023-06-22T13:43:19;29.60;99.90
24410;DHT22;12543;53.364;-1.504;2023-06-22T13:45:46;29.40;99.90
24410;DHT22;12543;53.364;-1.504;2023-06-22T13:48:13;29.10;99.90
24410;DHT22;12543;53.364;-1.504;2023-06-22T13:50:42;28.80;99.90
24410;DHT22;12543;53.364;-1.504;2023-06-22T13:53:10;28.60;99.90
24410;DHT22;12543;53.364;-1.504;2023-06-22T13:55:37;28.40;99.90
24410;DHT22;12543;53.364;-1.504;2023-06-22T13:58:04;28.10;99.90
24410;DHT22;12543;53.364;-1.504;2023-06-22T14:00:31;27.90;99.90
24410;DHT22;12543;53.364;-1.504;2023-06-22T14:02:59;27.60;99.90
24410;DHT22;12543;53.364;-1.504;2023-06-22T14:05:26;27.30;99.90
24410;DHT22;12543;53.364;-1.504;2023-06-22T14:07:53;27.10;99.90
24410;DHT22;12543;53.364;-1.504;2023-06-22T14:10:21;26.90;99.90
24410;DHT22;12543;53.364;-1.504;2023-06-22T14:12:48;26.60;99.90
24410;DHT22;12543;53.364;-1.504;2023-06-22T14:15:15;26.50;99.90
24410;DHT22;12543;53.364;-1.504;2023-06-22T14:17:42;26.30;99.90
24410;DHT22;12543;53.364;-1.504;2023-06-22T14:20:10;26.10;99.90
24410;DHT22;12543;53.364;-1.504;2023-06-22T14:22:37;26.00;99.90
24410;DHT22;12543;53.364;-1.504;2023-06-22T14:25:05;25.80;99.90
24410;DHT22;12543;53.364;-1.504;2023-06-22T14:27:32;25.70;99.90
24410;DHT22;12543;53.364;-1.504;2023-06-22T14:29:59;25.60;99.90
24410;DHT22;12543;53.364;-1.504;2023-06-22T14:32:28;25.50;99.90
24410;DHT22;12543;53.364;-1.504;2023-06-22T14:34:56;25.40;99.90
24410;DHT22;12543;53.364;-1.504;2023-06-22T14:37:23;25.30;99.90
24410;DHT22;12543;53.364;-1.504;2023-06-22T14:39:51;25.20;99.90
24410;DHT22;12543;53.364;-1.504;2023-06-22T14:42:18;25.20;99.90
24410;DHT22;12543;53.364;-1.504;2023-06-22T14:44:45;25.10;99.90
24410;DHT22;12543;53.364;-1.504;2023-06-22T14:47:12;25.00;99.90
24410;DHT22;12543;53.364;-1.504;2023-06-22T14:49:40;24.90;99.90
24410;DHT22;12543;53.364;-1.504;2023-06-22T14:52:08;24.80;99.90
24410;DHT22;12543;53.364;-1.504;2023-06-22T14:54:35;24.70;99.90
24410;DHT22;12543;53.364;-1.504;2023-06-22T14:57:03;24.70;99.90
24410;DHT22;12543;53.364;-1.504;2023-06-22T14:59:30;24.70;99.90
24410;DHT22;12543;53.364;-1.504;2023-06-22T15:01:57;24.60;99.90
24410;DHT22;12543;53.364;-1.504;2023-06-22T15:04:24;24.60;99.90
24410;DHT22;12543;53.364;-1.504;2023-06-22T15:06:53;24.60;99.90
24410;DHT22;12543;53.364;-1.504;2023-06-22T15:09:20;24.50;99.90
24410;DHT22;12543;53.364;-1.504;2023-06-22T15:11:48;24.50;99.90
24410;DHT22;12543;53.364;-1.504;2023-06-22T15:14:15;24.40;99.90
24410;DHT22;12543;53.364;-1.504;2023-06-22T15:16:42;24.40;99.90
24410;DHT22;12543;53.364;-1.504;2023-06-22T15:19:09;24.40;99.90
24410;DHT22;12543;53.364;-1.504;2023-06-22T15:21:39;24.40;99.90
24410;DHT22;12543;53.364;-1.504;2023-06-22T15:24:07;24.30;99.90
24410;DHT22;12543;53.364;-1.504;2023-06-22T15:26:37;24.30;99.90
24410;DHT22;12543;53.364;-1.504;2023-06-22T15:29:06;24.20;99.90
24410;DHT22;12543;53.364;-1.504;2023-06-22T15:31:34;24.20;99.90